Time;durP1;ratioP1;P1;durP2;ratioP2;P2;SDS_P1;SDS_P2;PMS_P1;PMS_P2;Temp;Humidity;BMP_temperature;BMP_pressure;BME280_temperature;BME280_humidity;BME280_pressure;Samples;Min_cycle;Max_cycle;Signal;HPM_P1;HPM_P2
2023/03/06 00:00:27;;;;;;;7.45;3.72;;;3.60;99.90;;;;;;4975477;28;20045;-76
2023/03/06 00:02:53;;;;;;;10.55;5.22;;;3.60;99.90;;;;;;5000867;28;20022;-75
2023/03/06 00:05:19;;;;;;;8.13;3.50;;;3.60;99.90;;;;;;4969979;28;20031;-76
2023/03/06 00:07:45;;;;;;;11.32;4.47;;;3.60;99.90;;;;;;4992835;28;20065;-76
2023/03/06 00:10:18;;;;;;;10.15;5.50;;;3.60;99.90;;;;;;4984899;28;20054;-76
2023/03/06 00:12:44;;;;;;;12.35;4.18;;;3.60;99.90;;;;;;5004339;28;20066;-76
2023/03/06 00:15:11;;;;;;;9.07;4.35;;;3.60;99.90;;;;;;4993381;28;20066;-75
2023/03/06 00:17:37;;;;;;;9.52;4.75;;;3.70;99.90;;;;;;5003348;28;20505;-76
2023/03/06 00:20:05;;;;;;;15.85;4.57;;;3.60;99.90;;;;;;4993120;28;20112;-76
2023/03/06 00:22:31;;;;;;;7.97;3.78;;;3.60;99.90;;;;;;4993881;28;20733;-75
2023/03/06 00:24:57;;;;;;;11.20;4.32;;;3.60;99.90;;;;;;5000222;28;20121;-76
2023/03/06 00:27:25;;;;;;;10.00;4.57;;;3.50;99.90;;;;;;4992343;28;20026;-76
2023/03/06 00:29:55;;;;;;;12.90;5.32;;;3.60;99.90;;;;;;4992006;28;20099;-76
2023/03/06 00:32:21;;;;;;;7.00;3.93;;;3.50;99.90;;;;;;4990988;28;20038;-75
2023/03/06 00:34:51;;;;;;;6.78;4.10;;;3.60;99.90;;;;;;4993202;28;20109;-75
2023/03/06 00:37:18;;;;;;;8.55;3.70;;;3.60;99.90;;;;;;4975603;28;20054;-75
2023/03/06 00:39:44;;;;;;;6.85;4.40;;;3.60;99.90;;;;;;4992829;28;20026;-76
2023/03/06 00:42:09;;;;;;;13.23;5.55;;;3.60;99.90;;;;;;4992390;28;20399;-75
2023/03/06 00:44:35;;;;;;;7.43;4.18;;;3.60;99.90;;;;;;4992935;28;20029;-75
2023/03/06 00:47:01;;;;;;;5.82;3.28;;;3.60;99.90;;;;;;4991528;28;20038;-75
2023/03/06 00:49:27;;;;;;;11.07;4.53;;;3.60;99.90;;;;;;4992532;28;20026;-76
2023/03/06 00:51:52;;;;;;;9.50;4.47;;;3.60;99.90;;;;;;4992643;28;20026;-75
2023/03/06 00:54:18;;;;;;;8.13;4.18;;;3.70;99.90;;;;;;4992316;28;20069;-75
2023/03/06 00:56:44;;;;;;;14.30;4.57;;;3.60;99.90;;;;;;4992828;28;20494;-75
2023/03/06 00:59:10;;;;;;;7.88;3.70;;;3.60;99.90;;;;;;4991546;28;20048;-76
2023/03/06 01:01:36;;;;;;;11.18;4.60;;;3.60;99.90;;;;;;4992622;28;20072;-75
2023/03/06 01:04:02;;;;;;;8.55;4.57;;;3.60;99.90;;;;;;4991991;28;20077;-75
2023/03/06 01:06:28;;;;;;;11.48;5.35;;;3.60;99.90;;;;;;5001132;28;20030;-76
2023/03/06 01:08:54;;;;;;;10.50;4.32;;;3.70;99.90;;;;;;4991907;28;20073;-76
2023/03/06 01:11:20;;;;;;;8.55;5.28;;;3.70;99.90;;;;;;5000025;28;20030;-75
2023/03/06 01:13:46;;;;;;;7.85;4.82;;;3.70;99.90;;;;;;4991858;28;20066;-75
2023/03/06 01:16:15;;;;;;;9.15;4.43;;;3.70;99.90;;;;;;5005229;23;20092;-71
2023/03/06 01:18:41;;;;;;;13.48;5.22;;;3.70;99.90;;;;;;5007177;28;20026;-71
2023/03/06 01:21:08;;;;;;;8.90;3.90;;;3.70;99.90;;;;;;4990533;28;20052;-71
2023/03/06 01:23:33;;;;;;;9.60;5.00;;;3.70;99.90;;;;;;4992205;28;20038;-71
2023/03/06 01:25:59;;;;;;;10.40;4.85;;;3.70;99.90;;;;;;4990290;28;20449;-71
2023/03/06 01:28:26;;;;;;;11.40;5.55;;;3.80;99.90;;;;;;5007454;28;20065;-71
2023/03/06 01:30:52;;;;;;;15.02;5.35;;;3.80;99.90;;;;;;4986250;28;20034;-71
2023/03/06 01:33:18;;;;;;;8.07;3.60;;;3.80;99.90;;;;;;4999259;28;20034;-71
2023/03/06 01:35:44;;;;;;;12.70;4.38;;;3.70;99.90;;;;;;4986413;28;20031;-70
2023/03/06 01:38:10;;;;;;;10.02;4.05;;;3.70;99.90;;;;;;4992299;28;20030;-71
2023/03/06 01:40:37;;;;;;;9.77;4.38;;;3.70;99.90;;;;;;4986659;28;20038;-70
2023/03/06 01:43:28;;;;;;;8.52;4.68;;;3.80;99.90;;;;;;4990768;28;20134;-70
2023/03/06 01:46:29;;;;;;;12.35;5.63;;;3.70;99.90;;;;;;4986302;28;20050;-71
2023/03/06 01:49:01;;;;;;;10.48;3.78;;;3.60;99.90;;;;;;4991731;28;20073;-70
2023/03/06 01:51:47;;;;;;;11.85;5.05;;;3.60;99.90;;;;;;4992923;28;20053;-71
2023/03/06 01:54:43;;;;;;;10.07;4.45;;;3.60;99.90;;;;;;5004251;28;20034;-71
2023/03/06 01:57:33;;;;;;;7.75;3.65;;;3.70;99.90;;;;;;4988154;28;20050;-70
2023/03/06 02:00:29;;;;;;;10.50;3.90;;;3.70;99.90;;;;;;4984507;28;20053;-71
2023/03/06 02:03:07;;;;;;;11.38;4.50;;;3.70;99.90;;;;;;4975975;28;20088;-71
2023/03/06 02:05:33;;;;;;;9.00;4.32;;;3.80;99.90;;;;;;4985524;28;20042;-71
2023/03/06 02:07:59;;;;;;;12.40;4.28;;;3.80;99.90;;;;;;4983246;28;20030;-71
2023/03/06 02:10:25;;;;;;;8.85;3.88;;;3.80;99.90;;;;;;4967814;28;20170;-71
2023/03/06 02:12:52;;;;;;;10.52;5.25;;;3.80;99.90;;;;;;4987954;28;20102;-71
2023/03/06 02:15:22;;;;;;;9.73;3.88;;;3.80;99.90;;;;;;4990754;28;20038;-71
2023/03/06 02:17:50;;;;;;;8.07;3.85;;;3.80;99.90;;;;;;4991178;28;20030;-71
2023/03/06 02:20:21;;;;;;;6.65;4.03;;;3.80;99.90;;;;;;4990703;28;20030;-71
2023/03/06 02:23:14;;;;;;;;;;;3.90;99.90;;;;;;4998307;28;20026;-71
2023/03/06 02:25:48;;;;;;;14.35;4.32;;;3.90;99.90;;;;;;4964025;28;19924;-71
2023/03/06 02:28:18;;;;;;;9.93;4.30;;;3.90;99.90;;;;;;4998078;28;20081;-71
2023/03/06 02:30:47;;;;;;;6.73;3.10;;;3.90;99.90;;;;;;4990545;28;20026;-71
2023/03/06 02:33:20;;;;;;;5.75;4.00;;;3.80;99.90;;;;;;4990989;28;20022;-71
2023/03/06 02:35:54;;;;;;;12.52;4.00;;;3.80;99.90;;;;;;4988098;28;20522;-71
2023/03/06 02:38:26;;;;;;;7.20;3.90;;;3.80;99.90;;;;;;4990346;28;20042;-71
2023/03/06 02:40:52;;;;;;;8.45;3.45;;;3.80;99.90;;;;;;4990602;28;20046;-71
2023/03/06 02:43:24;;;;;;;9.20;5.03;;;3.80;99.90;;;;;;4998215;28;20038;-71
2023/03/06 02:45:51;;;;;;;6.88;3.58;;;3.70;99.90;;;;;;4993492;28;20122;-71
2023/03/06 02:48:18;;;;;;;8.68;3.22;;;3.60;99.90;;;;;;4990773;28;20030;-71
2023/03/06 02:50:45;;;;;;;7.65;3.40;;;3.60;99.90;;;;;;4985092;28;20101;-71
2023/03/06 02:53:15;;;;;;;10.90;4.47;;;3.60;99.90;;;;;;4997595;28;20054;-71
2023/03/06 02:55:42;;;;;;;8.38;4.50;;;3.60;99.90;;;;;;4987064;28;20035;-71
2023/03/06 02:58:08;;;;;;;7.40;3.60;;;3.50;99.90;;;;;;4990752;28;20034;-71
2023/03/06 03:00:34;;;;;;;7.28;2.63;;;3.50;99.90;;;;;;4990337;28;20441;-71
2023/03/06 03:03:00;;;;;;;6.22;3.88;;;3.60;99.90;;;;;;4997806;28;20026;-71
2023/03/06 03:05:26;;;;;;;7.05;2.78;;;3.60;99.90;;;;;;4984739;28;20109;-71
2023/03/06 03:07:52;;;;;;;7.78;3.30;;;3.60;99.90;;;;;;4981635;28;20109;-71
2023/03/06 03:10:18;;;;;;;9.20;2.70;;;3.70;99.90;;;;;;4990225;28;20101;-71
2023/03/06 03:12:44;;;;;;;9.90;3.80;;;3.70;99.90;;;;;;4990907;28;20073;-71
2023/03/06 03:15:10;;;;;;;8.90;4.32;;;3.80;99.90;;;;;;4988646;28;20537;-71
2023/03/06 03:17:39;;;;;;;11.70;4.10;;;3.70;99.90;;;;;;4997823;28;20065;-71
2023/03/06 03:20:11;;;;;;;12.23;4.13;;;3.60;99.90;;;;;;4990279;28;20105;-72
2023/03/06 03:22:37;;;;;;;7.85;3.35;;;3.60;99.90;;;;;;4993585;28;20041;-71
2023/03/06 03:25:03;;;;;;;6.38;2.80;;;3.50;99.90;;;;;;4986594;28;20023;-71
2023/03/06 03:27:29;;;;;;;8.43;4.88;;;3.50;99.90;;;;;;4994466;28;20030;-71
2023/03/06 03:29:59;;;;;;;8.68;3.47;;;3.50;99.90;;;;;;4993565;28;20368;-71
2023/03/06 03:32:25;;;;;;;5.93;3.10;;;3.50;99.90;;;;;;4997656;28;20057;-70
2023/03/06 03:34:53;;;;;;;7.65;3.45;;;3.50;99.90;;;;;;4993753;28;20045;-71
2023/03/06 03:37:19;;;;;;;8.40;3.40;;;3.40;99.90;;;;;;4992974;28;20113;-71
2023/03/06 03:39:45;;;;;;;5.18;2.72;;;3.30;99.90;;;;;;4993508;28;20097;-71
2023/03/06 03:42:10;;;;;;;7.50;3.67;;;3.30;99.90;;;;;;4994047;28;20045;-70
2023/03/06 03:44:36;;;;;;;9.00;4.32;;;3.30;99.90;;;;;;4989077;28;20535;-71
2023/03/06 03:47:02;;;;;;;12.27;4.28;;;3.30;99.90;;;;;;4991668;28;20026;-71
2023/03/06 03:49:28;;;;;;;9.00;3.83;;;3.30;99.90;;;;;;4993263;28;20030;-71
2023/03/06 03:51:53;;;;;;;17.58;5.47;;;3.30;99.90;;;;;;4992465;28;20997;-71
2023/03/06 03:54:19;;;;;;;7.10;3.47;;;3.40;99.90;;;;;;4992335;28;20073;-71
2023/03/06 03:56:45;;;;;;;8.07;3.58;;;3.40;99.90;;;;;;4989331;28;20030;-71
2023/03/06 03:59:11;;;;;;;12.85;4.18;;;3.40;99.90;;;;;;4993484;28;20030;-71
2023/03/06 04:01:37;;;;;;;8.18;3.53;;;3.40;99.90;;;;;;4993468;28;20112;-71
2023/03/06 04:04:03;;;;;;;9.57;3.78;;;3.40;99.90;;;;;;4993799;28;20026;-70
2023/03/06 04:06:28;;;;;;;13.60;3.15;;;3.50;99.90;;;;;;4994151;28;20045;-71
2023/03/06 04:08:54;;;;;;;6.22;3.47;;;3.40;99.90;;;;;;4993594;28;20557;-71
2023/03/06 04:11:20;;;;;;;5.53;3.08;;;3.50;99.90;;;;;;4983984;28;20030;-70
2023/03/06 04:13:46;;;;;;;9.98;4.22;;;3.50;99.90;;;;;;4993487;28;20030;-71
2023/03/06 04:16:12;;;;;;;11.68;4.50;;;3.40;99.90;;;;;;4992886;28;20116;-71
2023/03/06 04:18:37;;;;;;;9.23;3.90;;;3.50;99.90;;;;;;4993106;28;20045;-71
2023/03/06 04:21:03;;;;;;;12.27;4.32;;;3.40;99.90;;;;;;4992750;28;20030;-71
2023/03/06 04:23:29;;;;;;;9.50;4.13;;;3.50;99.90;;;;;;4993329;28;20041;-71
2023/03/06 04:25:55;;;;;;;8.88;3.63;;;3.40;99.90;;;;;;4991266;28;20026;-71
2023/03/06 04:28:21;;;;;;;12.05;3.67;;;3.50;99.90;;;;;;4993015;28;20026;-71
2023/03/06 04:30:47;;;;;;;6.70;2.75;;;3.50;99.90;;;;;;4992678;28;20030;-71
2023/03/06 04:33:12;;;;;;;5.95;3.53;;;3.50;99.90;;;;;;4991365;28;20509;-70
2023/03/06 04:35:38;;;;;;;7.88;3.78;;;3.50;99.90;;;;;;4987450;28;20041;-71
2023/03/06 04:38:04;;;;;;;11.25;3.63;;;3.60;99.90;;;;;;4992770;28;20026;-71
2023/03/06 04:40:34;;;;;;;9.35;3.47;;;3.60;99.90;;;;;;4988749;28;20031;-71
2023/03/06 04:43:01;;;;;;;5.30;2.72;;;3.60;99.90;;;;;;4989214;28;20117;-71
2023/03/06 04:45:28;;;;;;;8.65;3.38;;;3.50;99.90;;;;;;4976752;28;20038;-71
2023/03/06 04:47:55;;;;;;;10.32;3.88;;;3.40;99.90;;;;;;4992744;28;20030;-70
2023/03/06 04:50:22;;;;;;;8.18;2.75;;;3.40;99.90;;;;;;4972949;28;20037;-70
2023/03/06 04:52:49;;;;;;;7.97;3.25;;;3.30;99.90;;;;;;4995001;28;20030;-70
2023/03/06 04:55:18;;;;;;;6.65;3.45;;;3.30;99.90;;;;;;4993103;28;20037;-72
2023/03/06 04:57:46;;;;;;;12.65;5.07;;;3.30;99.90;;;;;;4977861;28;20049;-70
2023/03/06 05:00:23;;;;;;;8.10;3.22;;;3.30;99.90;;;;;;4973784;28;20406;-71
2023/03/06 05:02:50;;;;;;;10.60;3.17;;;3.30;99.90;;;;;;4992962;28;20038;-70
2023/03/06 05:05:17;;;;;;;9.63;3.28;;;3.30;99.90;;;;;;4985269;28;20157;-71
2023/03/06 05:07:43;;;;;;;6.43;2.83;;;3.40;99.90;;;;;;4993638;28;20026;-71
2023/03/06 05:10:14;;;;;;;14.02;4.35;;;3.40;99.90;;;;;;4985394;28;20057;-71
2023/03/06 05:12:39;;;;;;;6.97;2.70;;;3.50;99.90;;;;;;4984050;28;20038;-72
2023/03/06 05:15:07;;;;;;;7.63;3.00;;;3.50;99.90;;;;;;4990602;28;20300;-72
2023/03/06 05:17:32;;;;;;;4.00;2.72;;;3.50;99.90;;;;;;4992387;28;20386;-71
2023/03/06 05:19:58;;;;;;;6.32;4.00;;;3.40;99.90;;;;;;4988420;28;20041;-73
2023/03/06 05:22:24;;;;;;;8.13;3.22;;;3.50;99.90;;;;;;4991986;28;20030;-72
2023/03/06 05:24:50;;;;;;;5.82;2.85;;;3.50;99.90;;;;;;4990355;28;20041;-72
2023/03/06 05:27:16;;;;;;;7.97;4.10;;;3.50;99.90;;;;;;4990856;28;20026;-72
2023/03/06 05:29:42;;;;;;;7.28;3.40;;;3.50;99.90;;;;;;4991176;28;20053;-72
2023/03/06 05:32:08;;;;;;;6.47;2.88;;;3.50;99.90;;;;;;4990716;28;20053;-75
2023/03/06 05:34:33;;;;;;;7.63;3.08;;;3.40;99.90;;;;;;4991386;28;20034;-69
2023/03/06 05:37:00;;;;;;;7.18;3.63;;;3.40;99.90;;;;;;4991745;28;20030;-70
2023/03/06 05:39:27;;;;;;;8.77;4.78;;;3.40;99.90;;;;;;4991714;28;20034;-69
2023/03/06 05:41:53;;;;;;;6.03;2.72;;;3.50;99.90;;;;;;4991396;28;20044;-75
2023/03/06 05:44:19;;;;;;;5.85;3.00;;;3.50;99.90;;;;;;4991324;28;20030;-73
2023/03/06 05:46:47;;;;;;;6.35;3.35;;;3.40;99.90;;;;;;4991331;28;20056;-73
2023/03/06 05:49:13;;;;;;;6.80;3.45;;;3.40;99.90;;;;;;4991635;28;20030;-73
2023/03/06 05:51:39;;;;;;;7.28;3.08;;;3.40;99.90;;;;;;4997998;28;20112;-71
2023/03/06 05:54:05;;;;;;;6.15;3.03;;;3.40;99.90;;;;;;4993127;28;20034;-71
2023/03/06 05:56:30;;;;;;;20.55;9.00;;;3.40;99.90;;;;;;4990694;28;20029;-70
2023/03/06 05:58:56;;;;;;;7.07;3.60;;;3.40;99.90;;;;;;4991401;28;20042;-70
2023/03/06 06:01:24;;;;;;;9.90;4.97;;;3.40;99.90;;;;;;4989621;28;20061;-70
2023/03/06 06:03:50;;;;;;;5.03;3.25;;;3.40;99.90;;;;;;5002500;28;20455;-70
2023/03/06 06:06:16;;;;;;;10.50;3.65;;;3.40;99.90;;;;;;5000838;28;20069;-70
2023/03/06 06:08:42;;;;;;;11.20;3.78;;;3.40;99.90;;;;;;4991056;28;20038;-71
2023/03/06 06:11:10;;;;;;;16.15;4.13;;;3.50;99.90;;;;;;4990490;28;20038;-72
2023/03/06 06:13:37;;;;;;;6.45;2.85;;;3.40;99.90;;;;;;5000887;28;20333;-72
2023/03/06 06:16:14;;;;;;;12.10;3.70;;;3.50;99.90;;;;;;4987008;28;20722;-72
2023/03/06 06:18:40;;;;;;;9.00;3.53;;;3.50;99.90;;;;;;4991315;28;20034;-72
2023/03/06 06:21:07;;;;;;;16.17;4.43;;;3.50;99.90;;;;;;4988811;28;20041;-74
2023/03/06 06:23:33;;;;;;;9.55;4.07;;;3.50;99.90;;;;;;5000696;28;20113;-72
2023/03/06 06:26:01;;;;;;;13.27;5.72;;;3.50;99.90;;;;;;4990690;28;20157;-71
2023/03/06 06:28:29;;;;;;;6.82;3.70;;;3.50;99.90;;;;;;4999551;28;20034;-71
2023/03/06 06:30:54;;;;;;;8.02;4.43;;;3.50;99.90;;;;;;5000520;28;20029;-76
2023/03/06 06:33:21;;;;;;;8.35;3.30;;;3.60;99.90;;;;;;4991676;28;20049;-78
2023/03/06 06:35:46;;;;;;;8.20;3.80;;;3.60;99.90;;;;;;4988790;28;20034;-75
2023/03/06 06:38:12;;;;;;;8.32;4.93;;;3.70;99.90;;;;;;4991253;28;20133;-75
2023/03/06 06:40:38;;;;;;;6.97;3.05;;;3.70;99.90;;;;;;4990832;28;20041;-76
2023/03/06 06:43:03;;;;;;;9.25;4.40;;;3.70;99.90;;;;;;4991333;28;20022;-76
2023/03/06 06:45:29;;;;;;;10.02;3.80;;;3.60;99.90;;;;;;4990527;28;20541;-72
2023/03/06 06:47:55;;;;;;;15.23;4.13;;;3.60;99.90;;;;;;4990540;28;20050;-72
2023/03/06 06:50:21;;;;;;;7.40;3.80;;;3.60;99.90;;;;;;4987501;28;20038;-71
2023/03/06 06:52:46;;;;;;;8.82;3.53;;;3.60;99.90;;;;;;4990514;28;20405;-71
2023/03/06 06:55:12;;;;;;;6.45;3.47;;;3.60;99.90;;;;;;4990383;28;20042;-71
2023/03/06 06:57:41;;;;;;;9.05;4.82;;;3.70;99.90;;;;;;4993485;28;20030;-71
2023/03/06 07:00:08;;;;;;;10.65;3.70;;;3.70;99.90;;;;;;4979443;28;20518;-70
2023/03/06 07:02:34;;;;;;;9.48;3.33;;;3.70;99.90;;;;;;4996403;28;20041;-71
2023/03/06 07:04:59;;;;;;;17.05;4.22;;;3.60;99.90;;;;;;5009726;28;20031;-70
2023/03/06 07:07:25;;;;;;;9.00;4.32;;;3.50;99.90;;;;;;4990724;28;20398;-71
2023/03/06 07:09:51;;;;;;;16.38;4.97;;;3.60;99.90;;;;;;4987876;28;20065;-71
2023/03/06 07:12:17;;;;;;;8.85;4.30;;;3.60;99.90;;;;;;4994606;28;20117;-71
2023/03/06 07:14:42;;;;;;;10.02;3.63;;;3.70;99.90;;;;;;5005688;23;20042;-78
2023/03/06 07:17:08;;;;;;;13.45;5.03;;;3.70;99.90;;;;;;4983067;28;20639;-77
2023/03/06 07:19:35;;;;;;;6.63;3.75;;;3.70;99.90;;;;;;4982118;28;20123;-79
2023/03/06 07:22:01;;;;;;;17.02;5.22;;;3.70;99.90;;;;;;4992582;28;20406;-78
2023/03/06 07:24:27;;;;;;;8.27;3.08;;;3.70;99.90;;;;;;4993485;28;20037;-80
2023/03/06 07:26:53;;;;;;;7.25;3.50;;;3.80;99.90;;;;;;5001193;28;20046;-81
2023/03/06 07:29:19;;;;;;;12.88;5.10;;;3.80;99.90;;;;;;4994580;28;20022;-82
2023/03/06 07:31:46;;;;;;;10.38;4.75;;;3.80;99.90;;;;;;4994463;28;20038;-81
2023/03/06 07:34:13;;;;;;;7.20;3.20;;;3.70;99.90;;;;;;4994641;28;20383;-80
2023/03/06 07:36:40;;;;;;;9.30;4.10;;;3.70;99.90;;;;;;4997692;28;20485;-79
2023/03/06 07:39:09;;;;;;;12.50;3.97;;;3.70;99.90;;;;;;4992740;28;20498;-78
2023/03/06 07:41:35;;;;;;;7.63;4.15;;;3.80;99.90;;;;;;4987056;28;20081;-78
2023/03/06 07:44:01;;;;;;;13.02;3.70;;;3.80;99.90;;;;;;4993373;28;20030;-78
2023/03/06 07:46:27;;;;;;;9.88;3.95;;;3.90;99.90;;;;;;4990237;28;20046;-80
2023/03/06 07:48:52;;;;;;;10.45;4.07;;;4.10;99.90;;;;;;4998994;28;20117;-78
2023/03/06 07:51:21;;;;;;;6.85;3.22;;;4.20;99.90;;;;;;4993369;28;20102;-76
2023/03/06 07:53:48;;;;;;;9.27;3.72;;;4.30;99.90;;;;;;5005266;28;20054;-76
2023/03/06 07:56:14;;;;;;;12.07;4.10;;;4.40;99.90;;;;;;4991725;28;20045;-78
2023/03/06 07:58:44;;;;;;;14.30;4.25;;;4.50;99.90;;;;;;4994231;28;20034;-79
2023/03/06 08:01:14;;;;;;;10.20;4.05;;;4.50;99.90;;;;;;4996424;28;20038;-79
2023/03/06 08:03:40;;;;;;;19.38;5.93;;;4.60;99.90;;;;;;5004394;28;20034;-79
2023/03/06 08:06:13;;;;;;;14.00;4.22;;;4.40;99.90;;;;;;5005249;28;20034;-79
2023/03/06 08:08:41;;;;;;;9.70;4.25;;;4.60;99.90;;;;;;4988272;28;20105;-79
2023/03/06 08:11:09;;;;;;;10.95;4.57;;;4.70;99.90;;;;;;4992892;28;20387;-78
2023/03/06 08:13:35;;;;;;;13.00;3.75;;;4.60;99.90;;;;;;4990762;28;20030;-78
2023/03/06 08:16:02;;;;;;;15.00;4.35;;;4.60;99.90;;;;;;4993427;28;20144;-78
2023/03/06 08:18:27;;;;;;;9.18;4.45;;;4.60;99.90;;;;;;4993267;28;20026;-78
2023/03/06 08:21:07;;;;;;;14.50;6.32;;;4.50;99.90;;;;;;4993897;28;20041;-82
2023/03/06 08:23:34;;;;;;;11.35;4.35;;;4.50;99.90;;;;;;4992752;28;20037;-78
2023/03/06 08:26:04;;;;;;;9.75;4.68;;;4.50;99.90;;;;;;4997272;28;20515;-79
2023/03/06 08:28:30;;;;;;;12.32;5.50;;;4.40;99.90;;;;;;4999820;28;20041;-86
2023/03/06 08:30:57;;;;;;;23.92;8.00;;;4.40;99.90;;;;;;4993483;28;20030;-79
2023/03/06 08:33:23;;;;;;;12.27;5.80;;;4.50;99.90;;;;;;4992144;28;20165;-81
2023/03/06 08:35:49;;;;;;;9.55;4.43;;;4.50;99.90;;;;;;4994340;28;20086;-82
2023/03/06 08:38:15;;;;;;;9.75;4.00;;;4.60;99.90;;;;;;4993875;28;20155;-80
2023/03/06 08:40:41;;;;;;;9.57;4.28;;;4.40;99.90;;;;;;4975497;28;20494;-78
2023/03/06 08:43:10;;;;;;;9.65;3.70;;;4.30;99.90;;;;;;4992264;28;20034;-80
2023/03/06 08:45:38;;;;;;;14.23;4.35;;;4.40;99.90;;;;;;4978755;28;20041;-78
2023/03/06 08:48:04;;;;;;;13.38;4.97;;;4.40;99.90;;;;;;4993644;28;20482;-78
2023/03/06 08:50:29;;;;;;;12.63;4.15;;;4.50;99.90;;;;;;4995460;28;20117;-81
2023/03/06 08:52:55;;;;;;;18.00;4.68;;;4.60;99.90;;;;;;4992869;28;20474;-81
2023/03/06 08:55:21;;;;;;;10.40;3.83;;;4.60;99.90;;;;;;4999792;28;20030;-79
2023/03/06 08:57:47;;;;;;;7.90;4.32;;;4.50;99.90;;;;;;4993126;28;20482;-80
2023/03/06 09:00:13;;;;;;;9.45;4.22;;;4.50;99.90;;;;;;4987959;28;20034;-80
2023/03/06 09:02:39;;;;;;;15.65;5.90;;;4.60;99.90;;;;;;4992945;28;20575;-79
2023/03/06 09:05:07;;;;;;;9.95;4.18;;;4.60;99.90;;;;;;4991808;28;20058;-80
2023/03/06 09:07:34;;;;;;;13.50;6.05;;;4.70;99.90;;;;;;4991962;28;20030;-79
2023/03/06 09:10:00;;;;;;;9.30;3.60;;;4.70;99.90;;;;;;4988961;28;20137;-81
2023/03/06 09:12:26;;;;;;;19.52;3.42;;;4.80;99.90;;;;;;4984151;28;20963;-81
2023/03/06 09:14:52;;;;;;;10.38;4.18;;;5.00;99.90;;;;;;5004106;28;20042;-79
2023/03/06 09:17:18;;;;;;;14.88;5.13;;;4.80;99.90;;;;;;4992242;28;20033;-79
2023/03/06 09:19:44;;;;;;;8.85;3.42;;;4.80;99.90;;;;;;4992132;28;20037;-85
2023/03/06 09:22:09;;;;;;;7.10;4.38;;;4.70;99.90;;;;;;4991307;28;20038;-83
2023/03/06 09:24:35;;;;;;;11.63;4.80;;;4.80;99.90;;;;;;4991119;28;20038;-76
2023/03/06 09:27:01;;;;;;;7.50;3.55;;;5.00;99.90;;;;;;4992695;28;20102;-79
2023/03/06 09:29:27;;;;;;;11.52;5.50;;;5.00;99.90;;;;;;4992570;28;20101;-79
2023/03/06 09:31:53;;;;;;;8.45;3.75;;;4.90;99.90;;;;;;4997385;28;20033;-79
2023/03/06 09:34:19;;;;;;;9.18;3.90;;;4.90;99.90;;;;;;4992611;28;20030;-77
2023/03/06 09:36:45;;;;;;;7.65;3.67;;;5.00;99.90;;;;;;4982420;28;20054;-80
2023/03/06 09:39:11;;;;;;;5.80;3.50;;;4.90;99.90;;;;;;4992039;28;20115;-79
2023/03/06 09:41:40;;;;;;;13.80;4.50;;;4.80;99.90;;;;;;4997299;28;20030;-80
2023/03/06 09:44:22;;;;;;;5.00;3.00;;;4.80;99.90;;;;;;5005423;28;20046;-77
2023/03/06 09:47:18;;;;;;;9.38;4.65;;;4.90;99.90;;;;;;4999563;28;20018;-80
2023/03/06 09:50:22;;;;;;;12.23;3.38;;;4.90;99.90;;;;;;4990973;28;20034;-78
2023/03/06 09:53:16;;;;;;;10.38;4.07;;;4.90;99.90;;;;;;4989036;28;20121;-84
2023/03/06 09:55:44;;;;;;;9.95;4.13;;;5.00;99.90;;;;;;4991866;28;20034;-83
2023/03/06 09:58:21;;;;;;;9.95;4.85;;;5.10;99.90;;;;;;4988101;28;20039;-78
2023/03/06 10:01:01;;;;;;;7.30;3.35;;;5.30;99.90;;;;;;4990354;28;20030;-70
2023/03/06 10:03:37;;;;;;;17.25;3.28;;;5.40;99.90;;;;;;4973491;28;20030;-76
2023/03/06 10:06:13;;;;;;;10.82;4.40;;;5.40;99.90;;;;;;4992904;28;20034;-86
2023/03/06 10:09:03;;;;;;;10.63;4.20;;;5.50;99.90;;;;;;5000307;28;20042;-91
2023/03/06 10:11:40;;;;;;;11.50;4.38;;;5.60;99.90;;;;;;4976014;28;20081;-90
2023/03/06 10:14:13;;;;;;;19.20;4.80;;;5.50;99.90;;;;;;4987421;28;20031;-88
2023/03/06 10:16:39;;;;;;;8.48;4.32;;;5.60;99.90;;;;;;4993976;28;20054;-87
2023/03/06 10:19:14;;;;;;;8.32;3.45;;;5.70;99.90;;;;;;4995924;28;20503;-90
2023/03/06 10:21:53;;;;;;;8.95;3.95;;;5.70;99.90;;;;;;4995811;28;20030;-91
2023/03/06 10:24:48;;;;;;;12.20;4.40;;;5.60;99.90;;;;;;4994594;28;20101;-91
2023/03/06 10:27:32;;;;;;;5.63;3.67;;;5.30;99.90;;;;;;4994473;28;20034;-86
2023/03/06 10:30:38;;;;;;;22.98;4.53;;;5.30;99.90;;;;;;4993996;28;20033;-88
2023/03/06 10:33:50;;;;;;;11.27;4.10;;;5.40;99.90;;;;;;4989578;28;20034;-88
2023/03/06 10:36:19;;;;;;;8.43;3.58;;;5.60;99.90;;;;;;4993404;28;20034;-86
2023/03/06 10:38:47;;;;;;;12.68;4.85;;;5.50;99.90;;;;;;4991106;28;20039;-82
2023/03/06 10:41:13;;;;;;;10.93;4.47;;;5.30;99.90;;;;;;4991587;28;20533;-85
2023/03/06 10:43:58;;;;;;;13.48;5.53;;;5.40;99.90;;;;;;4990342;28;20034;-84
2023/03/06 10:46:32;;;;;;;9.70;4.65;;;5.40;99.90;;;;;;4985692;28;20042;-89
2023/03/06 10:49:02;;;;;;;11.27;4.43;;;5.60;99.90;;;;;;4982469;28;20110;-89
2023/03/06 10:51:30;;;;;;;9.17;3.97;;;5.60;99.90;;;;;;4980490;28;20059;-91
2023/03/06 10:53:57;;;;;;;30.83;4.53;;;5.70;99.90;;;;;;4974644;28;20038;-83
2023/03/06 10:56:39;;;;;;;11.85;5.25;;;5.70;99.90;;;;;;4992918;28;20042;-81
2023/03/06 10:59:27;;;;;;;9.98;3.80;;;5.70;99.90;;;;;;4991157;28;20049;-88
2023/03/06 11:02:36;;;;;;;21.75;6.95;;;5.50;99.90;;;;;;4992236;28;20036;-83
2023/03/06 11:05:04;;;;;;;11.90;4.90;;;5.70;99.90;;;;;;4991578;28;20043;-87
2023/03/06 11:07:33;;;;;;;12.38;5.45;;;5.80;99.90;;;;;;4990233;28;20034;-82
2023/03/06 11:10:24;;;;;;;10.30;3.92;;;5.90;99.90;;;;;;4998954;28;20023;-82
2023/03/06 11:13:06;;;;;;;8.48;4.68;;;5.70;99.90;;;;;;4990384;28;20038;-80
2023/03/06 11:15:33;;;;;;;9.90;3.90;;;5.60;99.90;;;;;;4984657;28;20081;-79
2023/03/06 11:18:29;;;;;;;13.13;5.03;;;5.60;99.90;;;;;;4986966;28;20458;-79
2023/03/06 11:20:55;;;;;;;8.18;4.03;;;5.70;99.90;;;;;;4998031;28;20271;-79
2023/03/06 11:23:48;;;;;;;9.02;3.70;;;5.70;99.90;;;;;;4989083;28;20030;-83
2023/03/06 11:26:25;;;;;;;12.73;4.90;;;5.70;99.90;;;;;;4997521;28;20034;-82
2023/03/06 11:29:17;;;;;;;9.60;5.15;;;5.80;99.90;;;;;;4991768;28;20074;-79
2023/03/06 11:32:06;;;;;;;10.45;4.10;;;5.80;99.90;;;;;;5002049;28;20046;-79
2023/03/06 11:35:04;;;;;;;8.07;3.95;;;6.00;99.90;;;;;;4995195;28;20125;-78
2023/03/06 11:37:48;;;;;;;12.70;5.40;;;5.90;99.90;;;;;;4971396;28;20027;-85
2023/03/06 11:40:29;;;;;;;8.02;4.53;;;6.10;99.90;;;;;;4990081;28;20121;-77
2023/03/06 11:43:32;;;;;;;11.73;4.78;;;6.00;99.90;;;;;;4991857;28;20041;-75
2023/03/06 11:46:25;;;;;;;7.85;4.35;;;5.80;99.90;;;;;;4992749;28;20070;-76
2023/03/06 11:49:09;;;;;;;11.52;4.85;;;5.70;99.90;;;;;;4996393;28;20022;-75
2023/03/06 11:51:46;;;;;;;5.20;2.80;;;5.60;99.90;;;;;;5002585;28;20118;-75
2023/03/06 11:54:13;;;;;;;19.35;5.13;;;5.70;99.90;;;;;;4997337;28;20490;-76
2023/03/06 11:57:28;;;;;;;10.10;4.78;;;5.80;99.90;;;;;;4993748;28;20065;-73
2023/03/06 12:00:08;;;;;;;7.43;4.15;;;5.80;99.90;;;;;;4958042;28;20499;-72
2023/03/06 12:02:57;;;;;;;6.30;3.25;;;5.90;99.90;;;;;;4969633;28;20439;-73
2023/03/06 12:05:34;;;;;;;6.82;3.60;;;5.60;99.90;;;;;;4987172;28;20499;-73
2023/03/06 12:08:34;;;;;;;5.63;2.70;;;5.70;99.90;;;;;;4992439;28;20097;-74
2023/03/06 12:11:56;;;;;;;7.47;3.88;;;5.70;99.90;;;;;;4982610;28;20038;-73
2023/03/06 12:14:48;;;;;;;6.15;3.22;;;5.50;99.90;;;;;;4955373;28;20042;-73
2023/03/06 12:17:48;;;;;;;8.80;3.72;;;5.50;99.90;;;;;;4966658;28;20035;-73
2023/03/06 12:21:08;;;;;;;13.43;5.88;;;5.50;99.90;;;;;;4931784;28;20051;-74
2023/03/06 12:24:04;;;;;;;7.70;3.85;;;5.60;99.90;;;;;;4985229;28;20018;-74
2023/03/06 12:26:44;;;;;;;4.78;2.60;;;5.60;99.90;;;;;;4995640;28;20065;-75
2023/03/06 12:29:54;;;;;;;7.93;3.40;;;5.40;99.90;;;;;;4992935;28;20034;-73
2023/03/06 12:32:35;;;;;;;11.38;5.22;;;5.40;99.90;;;;;;4965458;28;20034;-72
2023/03/06 12:35:48;;;;;;;6.55;4.22;;;5.40;99.90;;;;;;4991864;28;20030;-73
2023/03/06 12:38:36;;;;;;;8.82;4.40;;;5.50;99.90;;;;;;4985649;28;20746;-73
2023/03/06 12:41:23;;;;;;;6.70;4.00;;;5.70;99.90;;;;;;4993053;28;20061;-74
2023/03/06 12:44:03;;;;;;;9.98;3.67;;;5.80;99.90;;;;;;4985321;28;20132;-73
2023/03/06 12:46:29;;;;;;;8.00;3.73;;;6.00;99.90;;;;;;4991150;28;20030;-74
2023/03/06 12:49:27;;;;;;;9.80;4.70;;;6.00;99.90;;;;;;4986367;28;20808;-76
2023/03/06 12:51:55;;;;;;;10.10;3.92;;;6.00;99.90;;;;;;4998758;28;20549;-75
2023/03/06 12:54:28;;;;;;;9.65;4.43;;;5.90;99.90;;;;;;4992382;28;20030;-74
2023/03/06 12:56:56;;;;;;;13.95;3.90;;;6.00;99.90;;;;;;4975665;28;20033;-75
2023/03/06 12:59:47;;;;;;;6.82;3.42;;;6.10;99.90;;;;;;4993417;28;20050;-74
2023/03/06 13:02:31;;;;;;;7.03;3.38;;;6.20;99.90;;;;;;4992311;28;20545;-74
2023/03/06 13:05:41;;;;;;;8.05;3.85;;;6.40;99.90;;;;;;4992450;28;20085;-74
2023/03/06 13:08:41;;;;;;;10.48;4.03;;;6.20;99.90;;;;;;4983622;28;20046;-75
2023/03/06 13:11:48;;;;;;;7.50;3.45;;;6.30;99.90;;;;;;4991959;28;20030;-74
2023/03/06 13:17:30;;;;;;;4.68;3.00;;;6.40;99.90;;;;;;4978356;28;20482;-70
2023/03/06 13:20:15;;;;;;;3.80;2.45;;;6.40;99.90;;;;;;4977173;28;20498;-72